sensor_id;sensor_type;location;lat;lon;timestamp;P1;durP1;ratioP1;P2;durP2;ratioP2
11037;SDS011;5572;49.540;11.932;2023-07-13T00:00:46;18.20;;;16.70;;
11037;SDS011;5572;49.540;11.932;2023-07-13T00:03:13;18.60;;;17.13;;
11037;SDS011;5572;49.540;11.932;2023-07-13T00:05:40;16.50;;;15.13;;
11037;SDS011;5572;49.540;11.932;2023-07-13T00:08:07;23.73;;;21.47;;
11037;SDS011;5572;49.540;11.932;2023-07-13T00:10:38;15.63;;;14.40;;
11037;SDS011;5572;49.540;11.932;2023-07-13T00:13:05;14.90;;;13.70;;
11037;SDS011;5572;49.540;11.932;2023-07-13T00:15:32;16.67;;;15.33;;
11037;SDS011;5572;49.540;11.932;2023-07-13T00:18:00;16.07;;;14.80;;
11037;SDS011;5572;49.540;11.932;2023-07-13T00:20:28;15.17;;;13.97;;
11037;SDS011;5572;49.540;11.932;2023-07-13T00:22:55;15.17;;;13.90;;
11037;SDS011;5572;49.540;11.932;2023-07-13T00:25:22;14.93;;;13.73;;
11037;SDS011;5572;49.540;11.932;2023-07-13T00:27:53;16.00;;;14.67;;
11037;SDS011;5572;49.540;11.932;2023-07-13T00:30:20;15.40;;;14.17;;
11037;SDS011;5572;49.540;11.932;2023-07-13T00:32:47;16.00;;;14.70;;
11037;SDS011;5572;49.540;11.932;2023-07-13T00:35:14;16.07;;;14.80;;
11037;SDS011;5572;49.540;11.932;2023-07-13T00:37:43;15.17;;;13.90;;
11037;SDS011;5572;49.540;11.932;2023-07-13T00:40:10;15.03;;;13.80;;
11037;SDS011;5572;49.540;11.932;2023-07-13T00:42:37;14.33;;;13.17;;
11037;SDS011;5572;49.540;11.932;2023-07-13T00:45:05;14.90;;;13.67;;
11037;SDS011;5572;49.540;11.932;2023-07-13T00:47:52;16.27;;;14.93;;
11037;SDS011;5572;49.540;11.932;2023-07-13T00:50:20;15.27;;;14.03;;
11037;SDS011;5572;49.540;11.932;2023-07-13T00:52:50;14.47;;;13.30;;
11037;SDS011;5572;49.540;11.932;2023-07-13T00:55:19;15.10;;;13.87;;
11037;SDS011;5572;49.540;11.932;2023-07-13T00:57:47;17.40;;;15.67;;
11037;SDS011;5572;49.540;11.932;2023-07-13T01:00:14;13.30;;;12.20;;
11037;SDS011;5572;49.540;11.932;2023-07-13T01:02:42;15.20;;;13.97;;
11037;SDS011;5572;49.540;11.932;2023-07-13T01:05:11;15.33;;;14.10;;
11037;SDS011;5572;49.540;11.932;2023-07-13T01:07:39;17.13;;;15.67;;
11037;SDS011;5572;49.540;11.932;2023-07-13T01:10:10;15.13;;;13.90;;
11037;SDS011;5572;49.540;11.932;2023-07-13T01:12:37;17.90;;;16.47;;
11037;SDS011;5572;49.540;11.932;2023-07-13T01:15:04;14.17;;;13.00;;
11037;SDS011;5572;49.540;11.932;2023-07-13T01:17:33;16.50;;;15.17;;
11037;SDS011;5572;49.540;11.932;2023-07-13T01:20:00;17.43;;;16.00;;
11037;SDS011;5572;49.540;11.932;2023-07-13T01:22:28;19.37;;;17.77;;
11037;SDS011;5572;49.540;11.932;2023-07-13T01:24:57;15.77;;;14.47;;
11037;SDS011;5572;49.540;11.932;2023-07-13T01:27:24;18.97;;;17.43;;
11037;SDS011;5572;49.540;11.932;2023-07-13T01:29:53;14.70;;;13.50;;
11037;SDS011;5572;49.540;11.932;2023-07-13T01:32:29;14.70;;;13.53;;
11037;SDS011;5572;49.540;11.932;2023-07-13T01:34:57;17.77;;;16.33;;
11037;SDS011;5572;49.540;11.932;2023-07-13T01:37:24;15.90;;;14.57;;
11037;SDS011;5572;49.540;11.932;2023-07-13T01:39:53;14.87;;;13.60;;
11037;SDS011;5572;49.540;11.932;2023-07-13T01:42:19;15.17;;;13.90;;
11037;SDS011;5572;49.540;11.932;2023-07-13T01:44:46;16.43;;;15.10;;
11037;SDS011;5572;49.540;11.932;2023-07-13T01:47:13;13.23;;;12.10;;
11037;SDS011;5572;49.540;11.932;2023-07-13T01:49:39;15.57;;;14.23;;
11037;SDS011;5572;49.540;11.932;2023-07-13T01:52:06;17.60;;;16.17;;
11037;SDS011;5572;49.540;11.932;2023-07-13T01:54:33;15.13;;;13.87;;
11037;SDS011;5572;49.540;11.932;2023-07-13T01:57:01;16.80;;;15.43;;
11037;SDS011;5572;49.540;11.932;2023-07-13T01:59:28;15.43;;;14.13;;
11037;SDS011;5572;49.540;11.932;2023-07-13T02:01:55;17.90;;;16.40;;
11037;SDS011;5572;49.540;11.932;2023-07-13T02:04:22;15.50;;;14.23;;
11037;SDS011;5572;49.540;11.932;2023-07-13T02:06:48;17.53;;;16.07;;
11037;SDS011;5572;49.540;11.932;2023-07-13T02:09:15;16.17;;;14.80;;
11037;SDS011;5572;49.540;11.932;2023-07-13T02:11:41;15.23;;;13.97;;
11037;SDS011;5572;49.540;11.932;2023-07-13T02:14:09;15.47;;;14.17;;
11037;SDS011;5572;49.540;11.932;2023-07-13T02:16:36;16.97;;;15.57;;
11037;SDS011;5572;49.540;11.932;2023-07-13T02:19:03;17.30;;;15.87;;
11037;SDS011;5572;49.540;11.932;2023-07-13T02:21:31;16.03;;;14.70;;
11037;SDS011;5572;49.540;11.932;2023-07-13T02:23:57;17.13;;;15.70;;
11037;SDS011;5572;49.540;11.932;2023-07-13T02:26:25;16.23;;;14.93;;
11037;SDS011;5572;49.540;11.932;2023-07-13T02:28:51;14.27;;;13.17;;
11037;SDS011;5572;49.540;11.932;2023-07-13T02:31:19;20.37;;;18.83;;
11037;SDS011;5572;49.540;11.932;2023-07-13T02:33:46;15.43;;;14.23;;
11037;SDS011;5572;49.540;11.932;2023-07-13T02:36:12;15.53;;;14.33;;
11037;SDS011;5572;49.540;11.932;2023-07-13T02:38:41;15.20;;;14.03;;
11037;SDS011;5572;49.540;11.932;2023-07-13T02:41:08;18.73;;;17.10;;
11037;SDS011;5572;49.540;11.932;2023-07-13T02:43:36;15.87;;;14.67;;
11037;SDS011;5572;49.540;11.932;2023-07-13T02:46:03;16.47;;;15.20;;
11037;SDS011;5572;49.540;11.932;2023-07-13T02:48:33;16.20;;;15.00;;
11037;SDS011;5572;49.540;11.932;2023-07-13T02:51:00;15.70;;;14.53;;
11037;SDS011;5572;49.540;11.932;2023-07-13T02:53:26;15.30;;;14.07;;
11037;SDS011;5572;49.540;11.932;2023-07-13T02:55:53;13.83;;;12.80;;
11037;SDS011;5572;49.540;11.932;2023-07-13T02:58:19;13.70;;;12.60;;
11037;SDS011;5572;49.540;11.932;2023-07-13T03:00:46;15.20;;;14.07;;
11037;SDS011;5572;49.540;11.932;2023-07-13T03:03:15;14.63;;;13.47;;
11037;SDS011;5572;49.540;11.932;2023-07-13T03:05:44;15.23;;;14.00;;
11037;SDS011;5572;49.540;11.932;2023-07-13T03:08:15;16.47;;;15.17;;
11037;SDS011;5572;49.540;11.932;2023-07-13T03:10:43;14.40;;;13.27;;
11037;SDS011;5572;49.540;11.932;2023-07-13T03:13:09;16.80;;;15.53;;
11037;SDS011;5572;49.540;11.932;2023-07-13T03:15:36;15.97;;;14.77;;
11037;SDS011;5572;49.540;11.932;2023-07-13T03:18:02;15.43;;;14.20;;
11037;SDS011;5572;49.540;11.932;2023-07-13T03:20:31;14.70;;;13.57;;
11037;SDS011;5572;49.540;11.932;2023-07-13T03:23:00;14.07;;;12.93;;
11037;SDS011;5572;49.540;11.932;2023-07-13T03:25:28;13.67;;;12.60;;
11037;SDS011;5572;49.540;11.932;2023-07-13T03:27:54;15.63;;;14.43;;
11037;SDS011;5572;49.540;11.932;2023-07-13T03:30:21;14.57;;;13.47;;
11037;SDS011;5572;49.540;11.932;2023-07-13T03:32:48;15.03;;;13.90;;
11037;SDS011;5572;49.540;11.932;2023-07-13T03:35:14;17.07;;;15.70;;
11037;SDS011;5572;49.540;11.932;2023-07-13T03:37:41;14.70;;;13.57;;
11037;SDS011;5572;49.540;11.932;2023-07-13T03:40:10;17.13;;;15.80;;
11037;SDS011;5572;49.540;11.932;2023-07-13T03:42:38;16.37;;;15.13;;
11037;SDS011;5572;49.540;11.932;2023-07-13T03:45:05;16.93;;;15.60;;
11037;SDS011;5572;49.540;11.932;2023-07-13T03:47:32;15.07;;;13.93;;
11037;SDS011;5572;49.540;11.932;2023-07-13T03:49:59;16.37;;;15.03;;
11037;SDS011;5572;49.540;11.932;2023-07-13T03:52:25;13.67;;;12.67;;
11037;SDS011;5572;49.540;11.932;2023-07-13T03:54:52;14.90;;;13.77;;
11037;SDS011;5572;49.540;11.932;2023-07-13T03:57:20;13.60;;;12.57;;
11037;SDS011;5572;49.540;11.932;2023-07-13T03:59:47;16.23;;;14.97;;
11037;SDS011;5572;49.540;11.932;2023-07-13T04:02:13;16.83;;;15.57;;
11037;SDS011;5572;49.540;11.932;2023-07-13T04:04:40;17.07;;;15.77;;
11037;SDS011;5572;49.540;11.932;2023-07-13T04:07:07;17.53;;;16.20;;
11037;SDS011;5572;49.540;11.932;2023-07-13T04:09:34;16.97;;;15.70;;
11037;SDS011;5572;49.540;11.932;2023-07-13T04:12:00;14.23;;;13.20;;
11037;SDS011;5572;49.540;11.932;2023-07-13T04:14:28;16.37;;;15.13;;
11037;SDS011;5572;49.540;11.932;2023-07-13T04:16:55;15.07;;;13.90;;
11037;SDS011;5572;49.540;11.932;2023-07-13T04:19:22;18.30;;;16.87;;
11037;SDS011;5572;49.540;11.932;2023-07-13T04:21:49;15.90;;;14.63;;
11037;SDS011;5572;49.540;11.932;2023-07-13T04:24:16;16.93;;;15.67;;
11037;SDS011;5572;49.540;11.932;2023-07-13T04:26:42;15.90;;;14.60;;
11037;SDS011;5572;49.540;11.932;2023-07-13T04:29:09;17.07;;;15.73;;
11037;SDS011;5572;49.540;11.932;2023-07-13T04:31:37;15.07;;;13.93;;
11037;SDS011;5572;49.540;11.932;2023-07-13T04:34:03;16.20;;;14.93;;
11037;SDS011;5572;49.540;11.932;2023-07-13T04:36:30;16.53;;;15.20;;
11037;SDS011;5572;49.540;11.932;2023-07-13T04:38:56;15.90;;;14.70;;
11037;SDS011;5572;49.540;11.932;2023-07-13T04:41:23;17.30;;;15.93;;
11037;SDS011;5572;49.540;11.932;2023-07-13T04:43:50;15.63;;;14.43;;
11037;SDS011;5572;49.540;11.932;2023-07-13T04:46:17;14.53;;;13.47;;
11037;SDS011;5572;49.540;11.932;2023-07-13T04:48:45;15.37;;;14.20;;
11037;SDS011;5572;49.540;11.932;2023-07-13T04:51:12;19.90;;;18.33;;
11037;SDS011;5572;49.540;11.932;2023-07-13T04:53:39;13.53;;;12.57;;
11037;SDS011;5572;49.540;11.932;2023-07-13T04:56:05;16.30;;;15.00;;
11037;SDS011;5572;49.540;11.932;2023-07-13T04:58:32;15.97;;;14.77;;
11037;SDS011;5572;49.540;11.932;2023-07-13T05:00:59;16.27;;;15.03;;
11037;SDS011;5572;49.540;11.932;2023-07-13T05:03:27;15.70;;;14.50;;
11037;SDS011;5572;49.540;11.932;2023-07-13T05:05:58;16.43;;;15.20;;
11037;SDS011;5572;49.540;11.932;2023-07-13T05:08:26;14.13;;;13.07;;
11037;SDS011;5572;49.540;11.932;2023-07-13T05:10:53;15.40;;;14.23;;
11037;SDS011;5572;49.540;11.932;2023-07-13T05:13:19;17.00;;;15.67;;
11037;SDS011;5572;49.540;11.932;2023-07-13T05:15:46;13.73;;;12.70;;
11037;SDS011;5572;49.540;11.932;2023-07-13T05:18:13;17.10;;;15.77;;
11037;SDS011;5572;49.540;11.932;2023-07-13T05:20:40;15.30;;;14.17;;
11037;SDS011;5572;49.540;11.932;2023-07-13T05:23:08;16.57;;;15.30;;
11037;SDS011;5572;49.540;11.932;2023-07-13T05:25:35;14.17;;;13.13;;
11037;SDS011;5572;49.540;11.932;2023-07-13T05:28:01;16.30;;;15.07;;
11037;SDS011;5572;49.540;11.932;2023-07-13T05:30:28;16.63;;;15.27;;
11037;SDS011;5572;49.540;11.932;2023-07-13T05:32:54;17.40;;;16.00;;
11037;SDS011;5572;49.540;11.932;2023-07-13T05:35:21;17.33;;;15.93;;
11037;SDS011;5572;49.540;11.932;2023-07-13T05:37:47;16.40;;;15.10;;
11037;SDS011;5572;49.540;11.932;2023-07-13T05:40:15;18.80;;;17.33;;
11037;SDS011;5572;49.540;11.932;2023-07-13T05:42:42;18.80;;;17.37;;
11037;SDS011;5572;49.540;11.932;2023-07-13T05:45:09;16.77;;;15.50;;
11037;SDS011;5572;49.540;11.932;2023-07-13T05:47:35;19.00;;;17.50;;
11037;SDS011;5572;49.540;11.932;2023-07-13T05:50:02;18.63;;;17.17;;
11037;SDS011;5572;49.540;11.932;2023-07-13T05:52:29;19.93;;;18.37;;
11037;SDS011;5572;49.540;11.932;2023-07-13T05:54:56;16.93;;;15.60;;
11037;SDS011;5572;49.540;11.932;2023-07-13T05:57:24;18.93;;;17.43;;
11037;SDS011;5572;49.540;11.932;2023-07-13T05:59:51;20.17;;;18.37;;
11037;SDS011;5572;49.540;11.932;2023-07-13T06:02:17;20.27;;;18.30;;
11037;SDS011;5572;49.540;11.932;2023-07-13T06:04:44;19.17;;;17.63;;
11037;SDS011;5572;49.540;11.932;2023-07-13T06:07:10;20.77;;;19.17;;
11037;SDS011;5572;49.540;11.932;2023-07-13T06:09:37;24.47;;;22.20;;
11037;SDS011;5572;49.540;11.932;2023-07-13T06:12:04;19.03;;;17.60;;
11037;SDS011;5572;49.540;11.932;2023-07-13T06:14:32;18.77;;;17.37;;
11037;SDS011;5572;49.540;11.932;2023-07-13T06:16:59;19.13;;;17.73;;
11037;SDS011;5572;49.540;11.932;2023-07-13T06:19:25;20.07;;;18.53;;
11037;SDS011;5572;49.540;11.932;2023-07-13T06:21:52;18.43;;;17.13;;
11037;SDS011;5572;49.540;11.932;2023-07-13T06:24:19;19.23;;;17.87;;
11037;SDS011;5572;49.540;11.932;2023-07-13T06:26:45;17.20;;;15.97;;
11037;SDS011;5572;49.540;11.932;2023-07-13T06:29:12;19.17;;;17.80;;
11037;SDS011;5572;49.540;11.932;2023-07-13T06:31:40;18.97;;;17.50;;
11037;SDS011;5572;49.540;11.932;2023-07-13T06:34:06;19.73;;;18.23;;
11037;SDS011;5572;49.540;11.932;2023-07-13T06:36:33;20.10;;;18.50;;
11037;SDS011;5572;49.540;11.932;2023-07-13T06:39:01;18.63;;;17.23;;
11037;SDS011;5572;49.540;11.932;2023-07-13T06:41:28;19.47;;;18.03;;
11037;SDS011;5572;49.540;11.932;2023-07-13T06:43:55;18.50;;;17.13;;
11037;SDS011;5572;49.540;11.932;2023-07-13T06:46:22;19.50;;;18.07;;
11037;SDS011;5572;49.540;11.932;2023-07-13T06:48:50;18.50;;;17.17;;
11037;SDS011;5572;49.540;11.932;2023-07-13T06:51:17;24.33;;;22.47;;
11037;SDS011;5572;49.540;11.932;2023-07-13T06:53:44;16.57;;;15.40;;
11037;SDS011;5572;49.540;11.932;2023-07-13T06:56:10;19.73;;;18.23;;
11037;SDS011;5572;49.540;11.932;2023-07-13T06:58:37;19.63;;;18.13;;
11037;SDS011;5572;49.540;11.932;2023-07-13T07:01:04;20.47;;;18.97;;
11037;SDS011;5572;49.540;11.932;2023-07-13T07:03:31;21.07;;;19.47;;
11037;SDS011;5572;49.540;11.932;2023-07-13T07:06:01;18.90;;;17.57;;
11037;SDS011;5572;49.540;11.932;2023-07-13T07:08:28;19.17;;;17.73;;
11037;SDS011;5572;49.540;11.932;2023-07-13T07:10:54;18.77;;;17.33;;
11037;SDS011;5572;49.540;11.932;2023-07-13T07:13:21;18.93;;;17.57;;
11037;SDS011;5572;49.540;11.932;2023-07-13T07:15:47;19.67;;;18.20;;
11037;SDS011;5572;49.540;11.932;2023-07-13T07:18:16;19.73;;;18.23;;
11037;SDS011;5572;49.540;11.932;2023-07-13T07:20:42;18.37;;;16.97;;
11037;SDS011;5572;49.540;11.932;2023-07-13T07:23:10;19.93;;;18.40;;
11037;SDS011;5572;49.540;11.932;2023-07-13T07:25:37;18.83;;;17.47;;
11037;SDS011;5572;49.540;11.932;2023-07-13T07:28:07;19.87;;;18.40;;
11037;SDS011;5572;49.540;11.932;2023-07-13T07:30:33;21.93;;;20.30;;
11037;SDS011;5572;49.540;11.932;2023-07-13T07:33:00;18.87;;;17.53;;
11037;SDS011;5572;49.540;11.932;2023-07-13T07:35:27;19.53;;;18.03;;
11037;SDS011;5572;49.540;11.932;2023-07-13T07:37:53;18.57;;;17.27;;
11037;SDS011;5572;49.540;11.932;2023-07-13T07:40:21;19.77;;;18.33;;
11037;SDS011;5572;49.540;11.932;2023-07-13T07:42:48;19.33;;;18.00;;
11037;SDS011;5572;49.540;11.932;2023-07-13T07:45:15;18.57;;;17.30;;
11037;SDS011;5572;49.540;11.932;2023-07-13T07:47:41;19.67;;;18.23;;
11037;SDS011;5572;49.540;11.932;2023-07-13T07:50:08;18.17;;;16.80;;
11037;SDS011;5572;49.540;11.932;2023-07-13T07:52:35;18.87;;;17.43;;
11037;SDS011;5572;49.540;11.932;2023-07-13T07:55:03;19.10;;;17.70;;
11037;SDS011;5572;49.540;11.932;2023-07-13T07:57:31;18.20;;;16.90;;
11037;SDS011;5572;49.540;11.932;2023-07-13T07:59:58;16.93;;;15.70;;
11037;SDS011;5572;49.540;11.932;2023-07-13T08:02:24;19.43;;;18.03;;
11037;SDS011;5572;49.540;11.932;2023-07-13T08:04:51;17.87;;;16.53;;
11037;SDS011;5572;49.540;11.932;2023-07-13T08:07:18;18.07;;;16.73;;
11037;SDS011;5572;49.540;11.932;2023-07-13T08:09:45;17.90;;;16.63;;
11037;SDS011;5572;49.540;11.932;2023-07-13T08:12:12;18.27;;;16.93;;
11037;SDS011;5572;49.540;11.932;2023-07-13T08:14:40;22.07;;;20.43;;
11037;SDS011;5572;49.540;11.932;2023-07-13T08:17:06;18.47;;;17.13;;
11037;SDS011;5572;49.540;11.932;2023-07-13T08:19:33;18.60;;;17.17;;
11037;SDS011;5572;49.540;11.932;2023-07-13T08:21:59;18.30;;;16.90;;
11037;SDS011;5572;49.540;11.932;2023-07-13T08:24:26;19.20;;;17.83;;
11037;SDS011;5572;49.540;11.932;2023-07-13T08:26:53;20.07;;;18.53;;
11037;SDS011;5572;49.540;11.932;2023-07-13T08:29:20;19.87;;;18.43;;
11037;SDS011;5572;49.540;11.932;2023-07-13T08:31:48;19.43;;;18.00;;
11037;SDS011;5572;49.540;11.932;2023-07-13T08:34:15;21.27;;;19.63;;
11037;SDS011;5572;49.540;11.932;2023-07-13T08:36:41;21.73;;;19.90;;
11037;SDS011;5572;49.540;11.932;2023-07-13T08:39:08;18.50;;;17.13;;
11037;SDS011;5572;49.540;11.932;2023-07-13T08:41:35;18.70;;;17.33;;
11037;SDS011;5572;49.540;11.932;2023-07-13T08:44:02;19.00;;;17.57;;
11037;SDS011;5572;49.540;11.932;2023-07-13T08:46:32;20.23;;;18.70;;
11037;SDS011;5572;49.540;11.932;2023-07-13T08:49:03;19.27;;;17.87;;
11037;SDS011;5572;49.540;11.932;2023-07-13T08:51:36;19.60;;;18.07;;
11037;SDS011;5572;49.540;11.932;2023-07-13T08:54:11;19.37;;;17.93;;
11037;SDS011;5572;49.540;11.932;2023-07-13T08:56:45;22.67;;;20.93;;
11037;SDS011;5572;49.540;11.932;2023-07-13T08:59:14;20.83;;;19.30;;
11037;SDS011;5572;49.540;11.932;2023-07-13T09:02:01;22.17;;;20.47;;
11037;SDS011;5572;49.540;11.932;2023-07-13T09:04:42;18.93;;;17.57;;
11037;SDS011;5572;49.540;11.932;2023-07-13T09:07:16;19.73;;;18.40;;
11037;SDS011;5572;49.540;11.932;2023-07-13T09:09:56;19.70;;;18.23;;
11037;SDS011;5572;49.540;11.932;2023-07-13T09:12:35;20.47;;;19.00;;
11037;SDS011;5572;49.540;11.932;2023-07-13T09:15:17;18.53;;;17.23;;
11037;SDS011;5572;49.540;11.932;2023-07-13T09:17:51;19.63;;;18.20;;
11037;SDS011;5572;49.540;11.932;2023-07-13T09:20:23;21.23;;;19.63;;
11037;SDS011;5572;49.540;11.932;2023-07-13T09:22:55;19.93;;;18.57;;
11037;SDS011;5572;49.540;11.932;2023-07-13T09:25:24;20.70;;;19.20;;
11037;SDS011;5572;49.540;11.932;2023-07-13T09:27:58;21.23;;;19.73;;
11037;SDS011;5572;49.540;11.932;2023-07-13T09:30:31;20.30;;;18.93;;
11037;SDS011;5572;49.540;11.932;2023-07-13T09:33:03;20.13;;;18.23;;
11037;SDS011;5572;49.540;11.932;2023-07-13T09:35:31;18.37;;;17.07;;
11037;SDS011;5572;49.540;11.932;2023-07-13T09:37:58;19.70;;;18.33;;
11037;SDS011;5572;49.540;11.932;2023-07-13T09:40:32;22.20;;;20.63;;
11037;SDS011;5572;49.540;11.932;2023-07-13T09:43:07;19.50;;;18.13;;
11037;SDS011;5572;49.540;11.932;2023-07-13T09:45:37;21.13;;;19.70;;
11037;SDS011;5572;49.540;11.932;2023-07-13T09:48:04;20.77;;;19.43;;
11037;SDS011;5572;49.540;11.932;2023-07-13T09:50:34;22.33;;;20.77;;
11037;SDS011;5572;49.540;11.932;2023-07-13T09:53:01;22.47;;;20.93;;
11037;SDS011;5572;49.540;11.932;2023-07-13T09:55:29;22.40;;;20.90;;
11037;SDS011;5572;49.540;11.932;2023-07-13T09:57:57;22.77;;;21.20;;
11037;SDS011;5572;49.540;11.932;2023-07-13T10:00:25;20.47;;;18.97;;
11037;SDS011;5572;49.540;11.932;2023-07-13T10:03:01;21.43;;;19.90;;
11037;SDS011;5572;49.540;11.932;2023-07-13T10:05:38;19.80;;;18.47;;
11037;SDS011;5572;49.540;11.932;2023-07-13T10:08:06;18.43;;;17.23;;
11037;SDS011;5572;49.540;11.932;2023-07-13T10:10:40;19.97;;;18.53;;
11037;SDS011;5572;49.540;11.932;2023-07-13T10:13:11;18.37;;;17.10;;
11037;SDS011;5572;49.540;11.932;2023-07-13T10:15:50;20.07;;;18.60;;
11037;SDS011;5572;49.540;11.932;2023-07-13T10:18:17;17.90;;;16.73;;
11037;SDS011;5572;49.540;11.932;2023-07-13T10:20:47;19.70;;;18.33;;
11037;SDS011;5572;49.540;11.932;2023-07-13T10:23:15;19.47;;;18.23;;
11037;SDS011;5572;49.540;11.932;2023-07-13T10:25:49;22.97;;;21.33;;
11037;SDS011;5572;49.540;11.932;2023-07-13T10:28:20;20.23;;;18.83;;
11037;SDS011;5572;49.540;11.932;2023-07-13T10:30:53;20.10;;;18.73;;
11037;SDS011;5572;49.540;11.932;2023-07-13T10:33:22;19.83;;;18.53;;
11037;SDS011;5572;49.540;11.932;2023-07-13T10:35:51;21.90;;;20.30;;
11037;SDS011;5572;49.540;11.932;2023-07-13T10:38:22;20.63;;;19.23;;
11037;SDS011;5572;49.540;11.932;2023-07-13T10:40:51;21.57;;;20.10;;
11037;SDS011;5572;49.540;11.932;2023-07-13T10:43:23;20.80;;;19.40;;
11037;SDS011;5572;49.540;11.932;2023-07-13T10:45:55;22.43;;;20.80;;
11037;SDS011;5572;49.540;11.932;2023-07-13T10:48:22;20.50;;;19.13;;
11037;SDS011;5572;49.540;11.932;2023-07-13T10:50:51;22.60;;;21.03;;
11037;SDS011;5572;49.540;11.932;2023-07-13T10:53:27;21.53;;;20.10;;
11037;SDS011;5572;49.540;11.932;2023-07-13T10:55:56;22.20;;;20.70;;
11037;SDS011;5572;49.540;11.932;2023-07-13T10:58:28;21.93;;;20.50;;
11037;SDS011;5572;49.540;11.932;2023-07-13T11:01:01;22.30;;;20.77;;
11037;SDS011;5572;49.540;11.932;2023-07-13T11:03:34;21.90;;;20.50;;
11037;SDS011;5572;49.540;11.932;2023-07-13T11:06:09;21.77;;;20.40;;
11037;SDS011;5572;49.540;11.932;2023-07-13T11:08:50;22.33;;;20.83;;
11037;SDS011;5572;49.540;11.932;2023-07-13T11:11:37;24.50;;;22.17;;
11037;SDS011;5572;49.540;11.932;2023-07-13T11:14:04;21.47;;;19.97;;
11037;SDS011;5572;49.540;11.932;2023-07-13T11:16:51;22.70;;;21.20;;
11037;SDS011;5572;49.540;11.932;2023-07-13T11:19:28;21.53;;;20.13;;
11037;SDS011;5572;49.540;11.932;2023-07-13T11:22:20;22.03;;;20.53;;
11037;SDS011;5572;49.540;11.932;2023-07-13T11:24:50;21.73;;;20.20;;
11037;SDS011;5572;49.540;11.932;2023-07-13T11:27:30;20.77;;;19.37;;
11037;SDS011;5572;49.540;11.932;2023-07-13T11:30:14;21.10;;;19.70;;
11037;SDS011;5572;49.540;11.932;2023-07-13T11:32:50;21.63;;;20.13;;
11037;SDS011;5572;49.540;11.932;2023-07-13T11:35:21;23.80;;;22.10;;
11037;SDS011;5572;49.540;11.932;2023-07-13T11:37:51;21.80;;;20.30;;
11037;SDS011;5572;49.540;11.932;2023-07-13T11:40:18;22.47;;;20.90;;
11037;SDS011;5572;49.540;11.932;2023-07-13T11:42:48;20.90;;;19.47;;
11037;SDS011;5572;49.540;11.932;2023-07-13T11:45:18;20.20;;;18.90;;
11037;SDS011;5572;49.540;11.932;2023-07-13T11:47:48;22.90;;;21.27;;
11037;SDS011;5572;49.540;11.932;2023-07-13T11:50:18;20.77;;;19.47;;
11037;SDS011;5572;49.540;11.932;2023-07-13T11:52:45;21.97;;;20.53;;
11037;SDS011;5572;49.540;11.932;2023-07-13T11:55:15;21.30;;;19.83;;
11037;SDS011;5572;49.540;11.932;2023-07-13T11:57:44;20.50;;;19.17;;
11037;SDS011;5572;49.540;11.932;2023-07-13T12:00:16;22.13;;;20.60;;
11037;SDS011;5572;49.540;11.932;2023-07-13T12:02:45;22.07;;;20.57;;
11037;SDS011;5572;49.540;11.932;2023-07-13T12:05:15;20.80;;;19.33;;
11037;SDS011;5572;49.540;11.932;2023-07-13T12:07:42;21.70;;;20.07;;
11037;SDS011;5572;49.540;11.932;2023-07-13T12:10:17;23.93;;;22.30;;
11037;SDS011;5572;49.540;11.932;2023-07-13T12:12:47;21.77;;;20.23;;
11037;SDS011;5572;49.540;11.932;2023-07-13T12:15:14;21.90;;;20.40;;
11037;SDS011;5572;49.540;11.932;2023-07-13T12:17:41;21.50;;;20.03;;
11037;SDS011;5572;49.540;11.932;2023-07-13T12:20:14;22.63;;;21.07;;
11037;SDS011;5572;49.540;11.932;2023-07-13T12:22:46;21.20;;;19.87;;
11037;SDS011;5572;49.540;11.932;2023-07-13T12:25:14;22.57;;;21.07;;
11037;SDS011;5572;49.540;11.932;2023-07-13T12:27:41;21.37;;;19.97;;
11037;SDS011;5572;49.540;11.932;2023-07-13T12:30:21;22.03;;;20.57;;
11037;SDS011;5572;49.540;11.932;2023-07-13T12:32:58;21.60;;;20.07;;
11037;SDS011;5572;49.540;11.932;2023-07-13T12:35:26;21.87;;;20.37;;
11037;SDS011;5572;49.540;11.932;2023-07-13T12:37:56;22.90;;;21.20;;
11037;SDS011;5572;49.540;11.932;2023-07-13T12:40:28;20.90;;;19.43;;
11037;SDS011;5572;49.540;11.932;2023-07-13T12:42:58;22.67;;;21.07;;
11037;SDS011;5572;49.540;11.932;2023-07-13T12:45:36;19.80;;;18.57;;
11037;SDS011;5572;49.540;11.932;2023-07-13T12:48:04;22.73;;;21.13;;
11037;SDS011;5572;49.540;11.932;2023-07-13T12:50:36;22.03;;;20.57;;
11037;SDS011;5572;49.540;11.932;2023-07-13T12:53:09;21.57;;;20.07;;
11037;SDS011;5572;49.540;11.932;2023-07-13T12:55:44;22.00;;;20.53;;
11037;SDS011;5572;49.540;11.932;2023-07-13T12:58:14;21.97;;;20.47;;
11037;SDS011;5572;49.540;11.932;2023-07-13T13:00:48;22.03;;;20.50;;
11037;SDS011;5572;49.540;11.932;2023-07-13T13:03:21;21.30;;;19.83;;
11037;SDS011;5572;49.540;11.932;2023-07-13T13:05:56;21.60;;;20.10;;
11037;SDS011;5572;49.540;11.932;2023-07-13T13:08:24;21.77;;;20.27;;
11037;SDS011;5572;49.540;11.932;2023-07-13T13:10:52;20.93;;;19.57;;
11037;SDS011;5572;49.540;11.932;2023-07-13T13:13:19;20.50;;;19.10;;
11037;SDS011;5572;49.540;11.932;2023-07-13T13:15:45;22.97;;;21.30;;
11037;SDS011;5572;49.540;11.932;2023-07-13T13:18:16;21.90;;;20.47;;
11037;SDS011;5572;49.540;11.932;2023-07-13T13:20:44;20.37;;;18.87;;
11037;SDS011;5572;49.540;11.932;2023-07-13T13:23:11;22.87;;;21.27;;
11037;SDS011;5572;49.540;11.932;2023-07-13T13:25:42;21.30;;;19.93;;
11037;SDS011;5572;49.540;11.932;2023-07-13T13:28:14;20.23;;;18.93;;
11037;SDS011;5572;49.540;11.932;2023-07-13T13:30:43;21.63;;;20.13;;
11037;SDS011;5572;49.540;11.932;2023-07-13T13:33:10;21.93;;;20.47;;
11037;SDS011;5572;49.540;11.932;2023-07-13T13:35:39;20.83;;;19.53;;
11037;SDS011;5572;49.540;11.932;2023-07-13T13:38:09;22.20;;;20.67;;
11037;SDS011;5572;49.540;11.932;2023-07-13T13:40:39;21.93;;;20.43;;
11037;SDS011;5572;49.540;11.932;2023-07-13T13:43:15;22.00;;;20.53;;
11037;SDS011;5572;49.540;11.932;2023-07-13T13:45:42;20.87;;;19.50;;
11037;SDS011;5572;49.540;11.932;2023-07-13T13:48:13;24.67;;;22.93;;
11037;SDS011;5572;49.540;11.932;2023-07-13T13:50:41;21.00;;;19.60;;
11037;SDS011;5572;49.540;11.932;2023-07-13T13:53:09;22.53;;;20.40;;
11037;SDS011;5572;49.540;11.932;2023-07-13T13:55:36;21.53;;;20.10;;
11037;SDS011;5572;49.540;11.932;2023-07-13T13:58:03;22.13;;;20.67;;
11037;SDS011;5572;49.540;11.932;2023-07-13T14:00:31;21.77;;;20.30;;
11037;SDS011;5572;49.540;11.932;2023-07-13T14:02:58;21.80;;;20.33;;
11037;SDS011;5572;49.540;11.932;2023-07-13T14:05:25;20.60;;;19.23;;
11037;SDS011;5572;49.540;11.932;2023-07-13T14:07:52;21.63;;;20.20;;
11037;SDS011;5572;49.540;11.932;2023-07-13T14:10:19;21.70;;;20.23;;
11037;SDS011;5572;49.540;11.932;2023-07-13T14:12:47;20.83;;;19.50;;
11037;SDS011;5572;49.540;11.932;2023-07-13T14:15:15;22.83;;;21.33;;
11037;SDS011;5572;49.540;11.932;2023-07-13T14:17:47;21.63;;;20.17;;
11037;SDS011;5572;49.540;11.932;2023-07-13T14:20:15;21.40;;;19.97;;
11037;SDS011;5572;49.540;11.932;2023-07-13T14:22:42;20.37;;;19.00;;
11037;SDS011;5572;49.540;11.932;2023-07-13T14:25:10;22.37;;;20.87;;
11037;SDS011;5572;49.540;11.932;2023-07-13T14:27:37;22.73;;;21.23;;
11037;SDS011;5572;49.540;11.932;2023-07-13T14:30:04;23.23;;;21.43;;